This is the latest recevied weather packets stored in our database for station/object SP3VBV-2. If no packets are shown the sender has not sent any weather packets the latest 10 day(s).
| Time | Temp. | Humidity | Pressure | Rain* | Wind** | Luminosity | Snow |
|---|---|---|---|---|---|---|---|
| 1777671114 | 11.67° C | 67% | 1024.6 hPa | - | - | - | - |
| 1777670519 | 12.22° C | 62% | 1024.6 hPa | - | - | - | - |
| 1777669918 | 12.78° C | 58% | 1024.6 hPa | - | - | - | - |
| 1777669314 | 12.78° C | 59% | 1024.7 hPa | - | - | - | - |
| 1777668714 | 12.78° C | 59% | 1024.6 hPa | - | - | - | - |
| 1777668114 | 12.78° C | 59% | 1024.7 hPa | - | - | - | - |
| 1777667515 | 12.78° C | 60% | 1024.6 hPa | - | - | - | - |
| 1777666914 | 13.33° C | 59% | 1024.6 hPa | - | - | - | - |
| 1777666314 | 13.33° C | 58% | 1024.7 hPa | - | - | - | - |
| 1777665714 | 13.33° C | 57% | 1024.7 hPa | - | - | - | - |
| 1777665114 | 13.89° C | 56% | 1024.6 hPa | - | - | - | - |
| 1777664514 | 13.89° C | 56% | 1024.5 hPa | - | - | - | - |
| 1777663915 | 13.89° C | 56% | 1024.5 hPa | - | - | - | - |
| 1777663314 | 14.44° C | 55% | 1024.5 hPa | - | - | - | - |
| 1777662715 | 14.44° C | 55% | 1024.4 hPa | - | - | - | - |
| 1777662114 | 14.44° C | 55% | 1024.3 hPa | - | - | - | - |
| 1777661514 | 15° C | 54% | 1024.2 hPa | - | - | - | - |
| 1777660914 | 15° C | 55% | 1024.1 hPa | - | - | - | - |
| 1777660314 | 15.56° C | 53% | 1024.1 hPa | - | - | - | - |
| 1777660306 | 15.56° C | 53% | 1024 hPa | - | - | - | - |
| 1777659706 | 16.67° C | 52% | 1023.8 hPa | - | - | - | - |
| 1777659106 | 17.22° C | 50% | 1023.8 hPa | - | - | - | - |
| 1777658506 | 17.78° C | 48% | 1023.7 hPa | - | - | - | - |
| 1777657906 | 18.33° C | 47% | 1023.6 hPa | - | - | - | - |
| 1777657306 | 18.89° C | 43% | 1023.6 hPa | - | - | - | - |
* Rain since midnight (hover to see other rain measurements)
** Current wind speed in m/s (hover to see current wind gust speed)